createdAt,value
2024-05-09T00:02:46.975Z,3.20
2024-05-09T00:10:34.608Z,2.83
2024-05-09T00:18:18.564Z,3.53
2024-05-09T00:25:57.543Z,2.67
2024-05-09T00:33:39.541Z,3.03
2024-05-09T00:41:20.105Z,3.55
2024-05-09T00:49:01.696Z,3.20
2024-05-09T00:56:40.833Z,3.28
2024-05-09T01:04:22.267Z,3.00
2024-05-09T01:12:01.507Z,3.53
2024-05-09T01:19:43.194Z,3.00
2024-05-09T01:27:25.072Z,3.42
2024-05-09T01:35:04.386Z,3.38
2024-05-09T01:42:46.547Z,3.28
2024-05-09T01:50:33.640Z,3.40
2024-05-09T01:58:19.627Z,3.35
2024-05-09T02:05:58.698Z,2.95
2024-05-09T02:13:40.397Z,3.30
2024-05-09T02:21:19.531Z,3.20
2024-05-09T02:29:01.200Z,3.30
2024-05-09T02:36:40.024Z,3.35
2024-05-09T02:44:21.772Z,2.90
2024-05-09T02:52:00.502Z,3.70
2024-05-09T02:59:42.174Z,4.13
2024-05-09T03:07:21.239Z,3.55
2024-05-09T03:15:02.642Z,3.75
2024-05-09T03:22:42.022Z,4.25
2024-05-09T03:30:31.153Z,3.50
2024-05-09T03:38:18.871Z,3.67
2024-05-09T03:46:00.407Z,3.90
2024-05-09T03:53:39.414Z,3.60
2024-05-09T04:01:21.195Z,3.35
2024-05-09T04:09:00.115Z,3.67
2024-05-09T04:16:41.727Z,3.50
2024-05-09T04:24:21.020Z,3.83
2024-05-09T04:32:02.874Z,3.83
2024-05-09T04:39:44.741Z,4.35
2024-05-09T04:47:27.156Z,4.20
2024-05-09T04:55:06.755Z,4.27
2024-05-09T05:02:48.475Z,4.03
2024-05-09T05:10:35.759Z,3.70
2024-05-09T05:18:21.875Z,4.15
2024-05-09T05:26:00.877Z,3.75
2024-05-09T05:33:43.759Z,3.72
2024-05-09T05:41:23.227Z,4.40
2024-05-09T05:49:05.700Z,3.33
2024-05-09T05:56:47.431Z,4.00
2024-05-09T06:04:31.438Z,4.10
2024-05-09T06:12:10.432Z,4.70
2024-05-09T06:19:52.717Z,4.15
2024-05-09T06:27:31.849Z,4.47
2024-05-09T06:35:13.511Z,4.07
2024-05-09T06:42:54.345Z,3.05
2024-05-09T06:50:38.257Z,3.03
2024-05-09T06:58:18.768Z,3.60
2024-05-09T07:06:00.704Z,5.65
2024-05-09T07:13:40.194Z,2.45
2024-05-09T07:21:21.665Z,2.63
2024-05-09T07:29:00.589Z,3.00
2024-05-09T07:36:42.314Z,2.75
2024-05-09T07:44:21.370Z,1.88
2024-05-09T07:53:27.000Z,2.05
2024-05-09T08:00:02.068Z,1.77
2024-05-09T08:07:47.790Z,1.58
2024-05-09T08:15:26.650Z,1.70
2024-05-09T08:23:08.266Z,1.50
2024-05-09T08:30:47.384Z,2.13
2024-05-09T08:38:28.923Z,1.75
2024-05-09T08:46:08.646Z,1.70
2024-05-09T08:53:50.320Z,2.08
2024-05-09T09:01:30.431Z,2.28
2024-05-09T09:09:13.294Z,1.98
2024-05-09T09:16:52.049Z,2.50
2024-05-09T09:24:33.713Z,2.30
2024-05-09T09:32:13.232Z,2.15
2024-05-09T09:39:54.801Z,2.30
2024-05-09T09:47:34.544Z,2.87
2024-05-09T09:55:16.320Z,2.20
2024-05-09T10:02:54.971Z,1.90
2024-05-09T10:10:38.478Z,1.90
2024-05-09T10:18:17.537Z,2.58
2024-05-09T10:26:03.692Z,2.22
2024-05-09T10:33:43.791Z,2.17
2024-05-09T10:41:26.184Z,2.15
2024-05-09T10:49:07.789Z,1.80
2024-05-09T10:56:50.091Z,4.00
2024-05-09T11:04:29.005Z,2.53
2024-05-09T11:12:11.580Z,2.53
2024-05-09T11:19:50.756Z,2.77
2024-05-09T11:27:32.871Z,2.63
2024-05-09T11:35:12.081Z,2.30
2024-05-09T11:42:53.888Z,2.30
2024-05-09T11:50:35.780Z,2.33
2024-05-09T11:58:18.505Z,2.90
2024-05-09T12:13:39.129Z,2.40
2024-05-09T12:21:18.253Z,2.67
2024-05-09T12:28:59.938Z,1.83
2024-05-09T12:36:41.362Z,2.08
2024-05-09T12:44:23.140Z,2.67
2024-05-09T12:52:01.990Z,2.42
2024-05-09T12:59:44.935Z,2.40
2024-05-09T13:07:23.860Z,2.25
2024-05-09T13:15:05.427Z,3.20
2024-05-09T13:22:45.114Z,2.15
2024-05-09T13:30:35.510Z,2.60
2024-05-09T13:38:19.352Z,2.80
2024-05-09T13:46:01.550Z,2.78
2024-05-09T13:53:40.803Z,2.25
2024-05-09T14:01:22.416Z,2.40
2024-05-09T14:09:01.796Z,2.63
2024-05-09T14:16:43.804Z,2.22
2024-05-09T14:24:22.957Z,3.40
2024-05-09T14:32:05.122Z,2.55
2024-05-09T14:39:44.025Z,2.97
2024-05-09T14:47:25.694Z,2.47
2024-05-09T14:55:04.716Z,2.55
2024-05-09T15:02:46.597Z,2.53
2024-05-09T15:10:34.114Z,4.93
2024-05-09T15:18:18.750Z,6.20
2024-05-09T15:25:57.780Z,3.53
2024-05-09T15:33:40.017Z,3.92
2024-05-09T15:41:18.960Z,2.87
2024-05-09T15:49:01.170Z,2.97
2024-05-09T15:56:41.056Z,3.03
2024-05-09T16:04:22.803Z,2.15
2024-05-09T16:12:01.723Z,1.88
2024-05-09T16:19:43.487Z,3.75
2024-05-09T16:27:22.439Z,1.70
2024-05-09T16:35:04.175Z,1.50
2024-05-09T16:42:43.162Z,1.60
2024-05-09T16:50:29.491Z,1.92
2024-05-09T16:58:12.774Z,3.15
2024-05-09T17:05:54.757Z,1.75
2024-05-09T17:13:34.333Z,3.00
2024-05-09T17:21:16.294Z,2.05
2024-05-09T17:28:55.740Z,2.00
2024-05-09T17:36:37.302Z,2.20
2024-05-09T17:44:16.280Z,2.33
2024-05-09T17:51:58.067Z,2.05
2024-05-09T17:59:36.771Z,2.10
2024-05-09T18:07:19.341Z,2.30
2024-05-09T18:14:58.250Z,1.92
2024-05-09T18:22:40.063Z,2.35
2024-05-09T18:30:27.380Z,2.20
2024-05-09T18:38:13.921Z,3.25
2024-05-09T18:45:53.419Z,3.85
2024-05-09T18:53:35.081Z,2.70
2024-05-09T19:01:14.522Z,4.40
2024-05-09T19:08:56.184Z,6.15
2024-05-09T19:16:35.978Z,4.75
2024-05-09T19:24:20.875Z,19.95
2024-05-09T19:31:59.962Z,8.27
2024-05-09T19:39:42.184Z,9.02
2024-05-09T19:47:21.911Z,9.60
2024-05-09T19:55:04.266Z,10.73
2024-05-09T20:02:44.393Z,10.43
2024-05-09T20:10:32.516Z,8.98
2024-05-09T20:18:14.591Z,7.07
2024-05-09T20:25:56.446Z,6.50
2024-05-09T20:33:35.962Z,7.18
2024-05-09T20:41:18.930Z,7.07
2024-05-09T20:48:58.993Z,6.82
2024-05-09T20:56:40.844Z,7.78
2024-05-09T21:04:20.254Z,7.75
2024-05-09T21:12:02.017Z,8.50
2024-05-09T21:19:41.216Z,6.68
2024-05-09T21:27:22.890Z,6.55
2024-05-09T21:35:02.240Z,5.32
2024-05-09T21:42:44.090Z,4.78
2024-05-09T21:50:28.440Z,6.97
2024-05-09T21:58:20.394Z,6.70
2024-05-09T22:05:59.672Z,5.78
2024-05-09T22:13:42.067Z,5.80
2024-05-09T22:21:21.050Z,6.30
2024-05-09T22:29:02.841Z,5.85
2024-05-09T22:36:42.182Z,4.72
2024-05-09T22:44:23.834Z,5.25
2024-05-09T22:52:02.750Z,6.55
2024-05-09T22:59:44.481Z,5.40
2024-05-09T23:07:23.370Z,5.05
2024-05-09T23:15:05.019Z,5.35
2024-05-09T23:22:43.985Z,4.78
2024-05-09T23:38:07.652Z,6.63
2024-05-09T23:45:49.392Z,6.10
2024-05-09T23:53:28.391Z,6.45
